Kalamazoo, MI

7:22 PM EST on December 03, 2016 (GMT -0500)
| | Change Station

Elev -9999 ft 0.00 °N, 0.00 °E | Updated

Cloudy
Cloudy
33 °F
Feels Like 33 °F
N
2
Wind Variable Wind from West
Gusts mph

Today
High -- | Low -- °F
--% Chance of Precip.
Yesterday
High -- | Low -- °F
Precip. -- in
Pressure 30.32 in
Visibility 10.0 miles
Clouds Overcast 3000 ft
Dew Point 26 °F
Humidity 75%
Rainfall --
Snow Depth Not available.
7:54 AM 5:10 PM
Waxing Crescent, 18% visible
METAR KAZO 032353Z 28004KT 10SM OVC030 02/M03 A3029 RMK AO2 SLP267 T00221033 10028 20017 58005
Pressure 30.32 in
Visibility 10.0 miles
Clouds Overcast 3000 ft
Dew Point 26 °F
Humidity 75%
Rainfall --
Snow Depth Not available.
7:54 AM 5:10 PM
Waxing Crescent, 18% visible
METAR KAZO 032353Z 28004KT 10SM OVC030 02/M03 A3029 RMK AO2 SLP267 T00221033 10028 20017 58005

10-Day Weather Forecast

Almanac

Astronomy

Dec. 03, 2016 Rise Set
Actual Time
Civil Twilight
Nautical Twilight
Astronomical Twilight
Moon
Length of Visible Light
Length of Day
Tomorrow will be .
, % of the Moon is Illuminated

Today's Extremes

State Highs State Lows

Community

WunderPhotos

Upload Photos

1,955,538 photos uploaded!

WunderBlog® & News

Nearby

Air Quality

  Air Quality AQ Index Pollutant
Not available.

Snow Depth

Station Depth Elevation

Earthquake Activity

City Distance Mag. Time & Date
Minimum magnitude displayed is 2.5.

Coastal Water Temperatures

Place Temperature

Stations

Nearby Weather Stations

Station Location Temp. Windchill Dew Point Humidity Wind Precip. Elev Updated Type
                   

Watches & Warnings

There are currently no watches in effect.